Time,TemperatureF,DewpointF,PressureIn,WindDirection,WindDirectionDegrees,WindSpeedMPH,WindSpeedGustMPH,Humidity,HourlyPrecipIn,Conditions,Clouds,dailyrainin,SoftwareType,DateUTC
2013-01-03 00:00:00,44.5,41.8,30.19,SW,225,2.0,10.0,90,0.00,,,0.00,VWS V14.01,2013-01-03 06:00:00,
2013-01-03 01:00:00,44.4,40.5,30.18,SW,225,4.0,11.0,86,0.00,,,0.00,VWS V14.01,2013-01-03 07:00:00,
2013-01-03 02:00:00,44.4,40.5,30.18,SW,225,4.0,11.0,86,0.00,,,0.00,VWS V14.01,2013-01-03 08:00:00,
2013-01-03 03:00:00,43.9,38.5,30.20,SW,225,6.0,14.0,81,0.00,,,0.00,VWS V14.01,2013-01-03 09:00:00,
2013-01-03 04:00:00,43.9,38.5,30.20,SW,225,6.0,14.0,81,0.00,,,0.00,VWS V14.01,2013-01-03 10:00:00,
2013-01-03 05:00:00,43.1,35.0,30.22,SW,225,6.0,13.0,73,0.00,,,0.00,VWS V14.01,2013-01-03 11:00:00,
2013-01-03 06:00:00,43.1,35.0,30.22,SW,225,6.0,13.0,73,0.00,,,0.00,VWS V14.01,2013-01-03 12:00:00,
2013-01-03 07:00:00,41.8,35.1,30.27,SW,225,3.0,12.0,77,0.00,,,0.00,VWS V14.01,2013-01-03 13:00:00,
2013-01-03 08:00:00,41.8,35.1,30.27,SW,225,3.0,12.0,77,0.00,,,0.00,VWS V14.01,2013-01-03 14:00:00,
2013-01-03 09:00:00,44.7,37.3,30.30,WSW,248,7.0,18.0,75,0.00,,,0.00,VWS V14.01,2013-01-03 15:00:00,
2013-01-03 10:00:00,44.7,37.3,30.30,WSW,248,7.0,18.0,75,0.00,,,0.00,VWS V14.01,2013-01-03 16:00:00,
2013-01-03 11:00:00,47.9,37.9,30.26,SW,225,7.0,16.0,68,0.00,,,0.00,VWS V14.01,2013-01-03 17:00:00,
2013-01-03 12:00:00,47.9,37.9,30.26,SW,225,7.0,16.0,68,0.00,,,0.00,VWS V14.01,2013-01-03 18:00:00,
2013-01-03 13:00:00,53.5,39.1,30.21,SW,225,8.0,17.0,58,0.00,,,0.00,VWS V14.01,2013-01-03 19:00:00,
2013-01-03 14:00:00,53.5,39.1,30.21,SW,225,8.0,17.0,58,0.00,,,0.00,VWS V14.01,2013-01-03 20:00:00,
2013-01-03 15:00:00,56.7,39.3,30.22,SW,225,7.0,16.0,52,0.00,,,0.00,VWS V14.01,2013-01-03 21:00:00,
2013-01-03 16:00:00,56.7,39.3,30.22,SW,225,7.0,16.0,52,0.00,,,0.00,VWS V14.01,2013-01-03 22:00:00,
2013-01-03 17:00:00,53.1,40.8,30.27,SW,225,4.0,16.0,63,0.00,,,0.00,VWS V14.01,2013-01-03 23:00:00,
2013-01-03 18:00:00,53.1,40.8,30.27,SW,225,4.0,16.0,63,0.00,,,0.00,VWS V14.01,2013-01-04 00:00:00,
2013-01-03 19:00:00,48.1,39.2,30.31,SW,225,0.0,6.0,71,0.00,,,0.00,VWS V14.01,2013-01-04 01:00:00,
2013-01-03 20:00:00,48.1,39.2,30.31,SW,225,0.0,6.0,71,0.00,,,0.00,VWS V14.01,2013-01-04 02:00:00,
2013-01-03 21:00:00,46.2,37.3,30.32,SW,225,1.0,9.0,71,0.00,,,0.00,VWS V14.01,2013-01-04 03:00:00,
2013-01-03 22:00:00,46.2,37.3,30.32,SW,225,1.0,9.0,71,0.00,,,0.00,VWS V14.01,2013-01-04 04:00:00,
2013-01-03 23:00:00,44.4,34.9,30.34,SW,225,2.0,13.0,69,0.00,,,0.00,VWS V14.01,2013-01-04 05:00:00,